ZA-0093 weather

Britstown Airport
Britstown, Northern Cape, South Africa

Public forecast

Using degrees Celsius for public forecast. Weather courtesy of forecast.io.

METAR (pilot weather report)

Report is more than 6 hours old.

Closest report is De Aar Military Airport, 21.1 nm (39.0 km) E. Retrieved 2019/08/22 09:48 UTC (7 hours ago):

FADY 220948Z 30006KT CAVOK 23/M07 Q1030

TAF (pilot weather forecast)

Forecast is more than 12 hours old.

Closest forecast is Kimberley Airport, 125.2 nm (231.8 km) NNE. Retrieved 2018/10/29 07:06 UTC (10 months ago):

TAF TAF FAKM 290600Z 2907/2919 33015KT CAVOK TX38/2913Z TN28/2918Z